Bend, OR (97707)

12:09 AM PST on December 04, 2016 (GMT -0800)
MesoWest | | Change Station

Elev 4199 ft 43.85 °N, 121.46 °W | Updated 38 minutes ago

Partly Cloudy
Partly Cloudy
33 °F
Feels Like 33 °F
N
0
Wind Variable Wind from North
Gusts 5.0 mph

Today
High -- | Low -- °F
--% Chance of Precip.
Yesterday
High -- | Low -- °F
Precip. -- in
Pressure 30.09 in
Visibility 10.0 miles
Clouds Few 5500 ft
Windchill 33 °F
Dew Point 28 °F
Humidity 82%
Rainfall in
Snow Depth Not available.
7:23 AM 4:28 PM
Waxing Crescent, 21% visible
METAR KBDN 040755Z AUTO 21021KT 10SM FEW055 05/M03 A3009 RMK AO2
Pressure 30.09 in
Visibility 10.0 miles
Clouds Few 5500 ft
Windchill 33 °F
Dew Point 28 °F
Humidity 82%
Rainfall in
Snow Depth Not available.
7:23 AM 4:28 PM
Waxing Crescent, 21% visible
METAR KBDN 040755Z AUTO 21021KT 10SM FEW055 05/M03 A3009 RMK AO2

10-Day Weather Forecast

Almanac

Astronomy

Dec. 04, 2016 Rise Set
Actual Time
Civil Twilight
Nautical Twilight
Astronomical Twilight
Moon
Length of Visible Light
Length of Day
Tomorrow will be .
, % of the Moon is Illuminated

Today's Extremes

State Highs State Lows

Community

WunderPhotos

Upload Photos

1,955,587 photos uploaded!

WunderBlog® & News

Nearby

Air Quality

  Air Quality AQ Index Pollutant
Not available.

Snow Depth

Station Depth Elevation

Earthquake Activity

City Distance Mag. Time & Date
Minimum magnitude displayed is 2.5.

Coastal Water Temperatures

Place Temperature

Stations

Nearby Weather Stations

Station Location Temp. Windchill Dew Point Humidity Wind Precip. Elev Updated Type
                   

Watches & Warnings

There are currently no watches in effect.